createdAt,value
2022-11-24T00:00:49.375Z,97875.34
2022-11-24T00:01:51.177Z,97875.56
2022-11-24T00:02:53.192Z,97866.66
2022-11-24T00:04:00.242Z,97873.44
2022-11-24T00:05:01.949Z,97872.66
2022-11-24T00:06:11.865Z,97876.06
2022-11-24T00:07:13.667Z,97876.66
2022-11-24T00:08:15.461Z,97882.13
2022-11-24T00:09:17.211Z,97879.16
2022-11-24T00:10:19.081Z,97880.56
2022-11-24T00:11:23.222Z,97874.41
2022-11-24T00:12:24.932Z,97877.84
2022-11-24T00:13:26.832Z,97875.91
2022-11-24T00:14:28.629Z,97873.28
2022-11-24T00:15:30.355Z,97873.88
2022-11-24T00:16:34.578Z,97869.63
2022-11-24T00:17:36.375Z,97879.88
2022-11-24T00:18:39.748Z,97875.63
2022-11-24T00:19:44.499Z,97880.19
2022-11-24T00:20:53.102Z,97879.19
2022-11-24T00:21:54.908Z,97880.19
2022-11-24T00:22:56.683Z,97880.44
2022-11-24T00:23:58.991Z,97880.44
2022-11-24T00:25:00.730Z,97881.47
2022-11-24T00:26:11.557Z,97882.03
2022-11-24T00:27:13.469Z,97882.50
2022-11-24T00:28:15.221Z,97882.03
2022-11-24T00:29:17.002Z,97876.28
2022-11-24T00:30:18.792Z,97885.56
2022-11-24T00:31:24.850Z,97884.97
2022-11-24T00:32:30.310Z,97878.19
2022-11-24T00:33:32.386Z,97879.66
2022-11-24T00:34:34.415Z,97884.72
2022-11-24T00:35:36.369Z,97881.63
2022-11-24T00:36:38.416Z,97878.78
2022-11-24T00:37:40.254Z,97873.97
2022-11-24T00:38:42.203Z,97873.81
2022-11-24T00:39:43.920Z,97876.31
2022-11-24T00:40:45.637Z,97876.75
2022-11-24T00:41:47.389Z,97879.44
2022-11-24T00:42:49.191Z,97878.72
2022-11-24T00:43:51.738Z,97879.97
2022-11-24T00:44:53.472Z,97875.78
2022-11-24T00:45:55.383Z,97878.66
2022-11-24T00:46:57.314Z,97874.13
2022-11-24T00:47:59.169Z,97863.16
2022-11-24T00:49:01.192Z,97864.09
2022-11-24T00:50:03.059Z,97868.75
2022-11-24T00:51:07.997Z,97870.25
2022-11-24T00:52:09.755Z,97866.59
2022-11-24T00:53:11.487Z,97867.91
2022-11-24T00:54:13.222Z,97869.72
2022-11-24T00:55:15.080Z,97868.84
2022-11-24T00:56:16.921Z,97861.75
2022-11-24T00:57:18.672Z,97868.28
2022-11-24T00:58:20.956Z,97868.06
2022-11-24T00:59:22.690Z,97864.97
2022-11-24T01:00:30.811Z,97838.59
2022-11-24T01:01:32.608Z,97865.78
2022-11-24T01:02:34.429Z,97861.88
2022-11-24T01:03:36.526Z,97871.19
2022-11-24T01:04:38.245Z,97865.53
2022-11-24T01:05:40.701Z,97846.25
2022-11-24T01:06:42.467Z,97875.41
2022-11-24T01:07:44.362Z,97867.63
2022-11-24T01:08:46.787Z,97873.81
2022-11-24T01:09:48.526Z,97882.06
2022-11-24T01:10:50.253Z,97867.53
2022-11-24T01:12:04.437Z,97876.38
2022-11-24T01:13:07.155Z,97879.22
2022-11-24T01:14:08.913Z,97877.84
2022-11-24T01:15:10.791Z,97875.06
2022-11-24T01:16:19.142Z,97882.72
2022-11-24T01:17:20.969Z,97880.31
2022-11-24T01:18:22.687Z,97882.94
2022-11-24T01:19:24.442Z,97877.94
2022-11-24T01:20:26.164Z,97887.78
2022-11-24T01:21:27.998Z,97882.94
2022-11-24T01:22:29.727Z,97894.06
2022-11-24T01:23:32.626Z,97892.69
2022-11-24T01:24:34.588Z,97889.13
2022-11-24T01:25:40.173Z,97897.13
2022-11-24T01:26:42.440Z,97895.56
2022-11-24T01:27:44.216Z,97892.78
2022-11-24T01:28:47.707Z,97904.47
2022-11-24T01:29:49.741Z,97893.34
2022-11-24T01:31:17.675Z,97897.81
2022-11-24T01:32:19.513Z,97894.16
2022-11-24T01:33:21.291Z,97898.03
2022-11-24T01:34:23.147Z,97897.44
2022-11-24T01:35:24.868Z,97896.25
2022-11-24T01:36:26.621Z,97887.66
2022-11-24T01:37:28.333Z,97888.09
2022-11-24T01:38:30.192Z,97892.34
2022-11-24T01:39:31.942Z,97891.97
2022-11-24T01:40:33.660Z,97883.34
2022-11-24T01:41:35.861Z,97892.41
2022-11-24T01:42:51.689Z,97891.03
2022-11-24T01:43:55.436Z,97895.25
2022-11-24T01:45:40.946Z,97891.88
2022-11-24T01:46:46.812Z,97890.28
2022-11-24T01:47:48.539Z,97892.91
2022-11-24T01:49:02.047Z,97897.16
2022-11-24T01:50:06.203Z,97891.75
2022-11-24T01:51:10.338Z,97897.59
2022-11-24T01:52:18.878Z,97892.78
2022-11-24T01:53:23.484Z,97890.94
2022-11-24T01:54:36.184Z,97896.22
2022-11-24T01:55:39.952Z,97896.41
2022-11-24T01:56:45.963Z,97903.06
2022-11-24T01:58:05.965Z,97900.66
2022-11-24T01:59:11.479Z,97905.72
2022-11-24T02:00:14.909Z,97904.91
2022-11-24T02:01:16.675Z,97894.22
2022-11-24T02:02:19.817Z,97900.28
2022-11-24T02:03:26.432Z,97903.50
2022-11-24T02:04:33.454Z,97896.84
2022-11-24T02:05:47.394Z,97897.28
2022-11-24T02:06:49.152Z,97898.09
2022-11-24T02:07:54.321Z,97898.88
2022-11-24T02:09:02.512Z,97892.47
2022-11-24T02:10:08.927Z,97897.28
2022-11-24T02:11:10.997Z,97903.00
2022-11-24T02:12:13.079Z,97892.91
2022-11-24T02:13:15.893Z,97894.34
2022-11-24T02:14:19.710Z,97899.47
2022-11-24T02:15:21.598Z,97889.97
2022-11-24T02:16:23.783Z,97899.28
2022-11-24T02:17:25.611Z,97873.97
2022-11-24T02:18:27.337Z,97894.09
2022-11-24T02:19:38.097Z,97899.78
2022-11-24T02:20:39.977Z,97902.03
2022-11-24T02:21:41.771Z,97899.59
2022-11-24T02:23:10.529Z,97899.22
2022-11-24T02:24:20.897Z,97896.03
2022-11-24T02:26:03.874Z,97895.63
2022-11-24T02:27:05.670Z,97896.88
2022-11-24T02:28:12.445Z,97886.97
2022-11-24T02:29:15.228Z,97888.81
2022-11-24T02:30:17.204Z,97894.31
2022-11-24T02:31:19.132Z,97880.78
2022-11-24T02:32:21.931Z,97895.13
2022-11-24T02:33:25.468Z,97890.66
2022-11-24T02:34:27.205Z,97876.31
2022-11-24T02:35:29.180Z,97874.09
2022-11-24T02:36:31.071Z,97887.16
2022-11-24T02:37:32.810Z,97887.97
2022-11-24T02:38:35.904Z,97891.19
2022-11-24T02:39:38.087Z,97889.56
2022-11-24T02:40:43.252Z,97865.00
2022-11-24T02:42:01.771Z,97879.28
2022-11-24T02:43:13.318Z,97886.94
2022-11-24T02:44:17.987Z,97878.69
2022-11-24T02:45:20.834Z,97872.25
2022-11-24T02:46:23.138Z,97894.41
2022-11-24T02:47:24.901Z,97887.97
2022-11-24T02:48:26.844Z,97887.53
2022-11-24T02:49:28.557Z,97891.59
2022-11-24T02:50:30.322Z,97895.63
2022-11-24T02:51:34.548Z,97889.78
2022-11-24T02:52:36.244Z,97892.81
2022-11-24T02:53:37.969Z,97896.03
2022-11-24T02:54:39.735Z,97891.19
2022-11-24T02:55:41.460Z,97895.00
2022-11-24T02:56:43.186Z,97892.38
2022-11-24T02:57:44.907Z,97891.34
2022-11-24T02:58:46.656Z,97887.34
2022-11-24T02:59:48.366Z,97892.13
2022-11-24T03:00:50.418Z,97891.91
2022-11-24T03:01:52.227Z,97881.84
2022-11-24T03:02:54.241Z,97891.34
2022-11-24T03:03:56.007Z,97894.75
2022-11-24T03:04:57.769Z,97892.72
2022-11-24T03:05:59.500Z,97896.97
2022-11-24T03:07:01.253Z,97902.03
2022-11-24T03:08:03.547Z,97900.41
2022-11-24T03:09:06.333Z,97904.06
2022-11-24T03:10:08.354Z,97905.34
2022-11-24T03:11:10.049Z,97904.97
2022-11-24T03:12:11.762Z,97907.38
2022-11-24T03:13:13.721Z,97910.22
2022-11-24T03:14:15.595Z,97904.38
2022-11-24T03:15:17.456Z,97910.06
2022-11-24T03:16:19.299Z,97902.22
2022-11-24T03:17:21.146Z,97914.97
2022-11-24T03:18:22.904Z,97901.69
2022-11-24T03:19:24.647Z,97912.00
2022-11-24T03:20:26.624Z,97915.84
2022-11-24T03:21:28.822Z,97914.03
2022-11-24T03:22:30.632Z,97914.03
2022-11-24T03:23:32.420Z,97914.22
2022-11-24T03:24:34.341Z,97929.38
2022-11-24T03:25:36.326Z,97924.69
2022-11-24T03:26:38.094Z,97917.25
2022-11-24T03:27:39.856Z,97920.13
2022-11-24T03:28:41.998Z,97918.09
2022-11-24T03:29:43.720Z,97935.88
2022-11-24T03:30:48.615Z,97924.56
2022-11-24T03:31:50.470Z,97915.88
2022-11-24T03:32:56.483Z,97928.59
2022-11-24T03:33:58.209Z,97917.88
2022-11-24T03:35:00.035Z,97922.13
2022-11-24T03:36:02.032Z,97920.50
2022-11-24T03:37:03.807Z,97917.06
2022-11-24T03:38:05.541Z,97922.94
2022-11-24T03:39:07.427Z,97922.94
2022-11-24T03:40:09.746Z,97932.03
2022-11-24T03:41:11.601Z,97927.84
2022-11-24T03:42:13.326Z,97935.94
2022-11-24T03:43:15.112Z,97928.28
2022-11-24T03:44:17.087Z,97935.97
2022-11-24T03:46:41.241Z,97937.63
2022-11-24T03:47:43.039Z,97928.41
2022-11-24T03:48:44.819Z,97934.88
2022-11-24T03:49:46.596Z,97928.59
2022-11-24T03:50:59.512Z,97938.66
2022-11-24T03:52:06.555Z,97933.00
2022-11-24T03:53:10.122Z,97933.38
2022-11-24T03:54:12.006Z,97935.22
2022-11-24T03:55:13.846Z,97926.94
2022-11-24T03:56:16.568Z,97928.34
2022-11-24T03:57:18.344Z,97937.22
2022-11-24T03:58:20.501Z,97940.88
2022-11-24T03:59:22.282Z,97934.59
2022-11-24T04:00:24.010Z,97931.97
2022-11-24T04:01:25.769Z,97926.34
2022-11-24T04:02:27.538Z,97928.75
2022-11-24T04:03:29.455Z,97927.94
2022-11-24T04:04:31.272Z,97918.66
2022-11-24T04:05:33.667Z,97929.16
2022-11-24T04:06:35.420Z,97934.06
2022-11-24T04:07:37.444Z,97923.16
2022-11-24T04:08:39.213Z,97928.81
2022-11-24T04:09:40.988Z,97926.78
2022-11-24T04:10:43.071Z,97930.03
2022-11-24T04:12:03.356Z,97924.00
2022-11-24T04:13:10.894Z,97927.66
2022-11-24T04:14:13.943Z,97922.41
2022-11-24T04:15:18.517Z,97929.28
2022-11-24T04:16:20.272Z,97935.28
2022-11-24T04:17:22.020Z,97935.28
2022-11-24T04:18:23.772Z,97937.34
2022-11-24T04:19:25.490Z,97927.66
2022-11-24T04:20:27.212Z,97942.41
2022-11-24T04:21:28.966Z,97941.00
2022-11-24T04:22:30.779Z,97947.03
2022-11-24T04:23:32.548Z,97942.63
2022-11-24T04:24:34.440Z,97941.22
2022-11-24T04:25:37.154Z,97954.94
2022-11-24T04:26:38.994Z,97952.31
2022-11-24T04:27:40.727Z,97952.09
2022-11-24T04:28:42.477Z,97956.13
2022-11-24T04:29:44.342Z,97951.50
2022-11-24T04:30:46.096Z,97953.09
2022-11-24T04:31:47.923Z,97948.88
2022-11-24T04:32:49.962Z,97948.47
2022-11-24T04:33:51.678Z,97950.91
2022-11-24T04:34:53.445Z,97950.13
2022-11-24T04:35:55.218Z,97951.75
2022-11-24T04:36:57.028Z,97946.91
2022-11-24T04:38:02.715Z,97947.16
2022-11-24T04:39:22.784Z,97946.53
2022-11-24T04:40:26.267Z,97953.63
2022-11-24T04:41:28.007Z,97950.81
2022-11-24T04:42:29.818Z,97957.69
2022-11-24T04:43:36.358Z,97958.88
2022-11-24T04:44:40.908Z,97953.63
2022-11-24T04:45:42.626Z,97953.84
2022-11-24T04:46:44.579Z,97950.41
2022-11-24T04:47:46.354Z,97955.66
2022-11-24T04:48:48.138Z,97961.31
2022-11-24T04:49:50.740Z,97963.53
2022-11-24T04:50:52.950Z,97958.28
2022-11-24T04:51:54.690Z,97967.78
2022-11-24T04:52:56.512Z,97956.47
2022-11-24T04:53:58.221Z,97959.47
2022-11-24T04:54:59.936Z,97961.50
2022-11-24T04:56:06.153Z,97955.66
2022-11-24T04:57:07.944Z,97948.59
2022-11-24T04:58:12.320Z,97960.31
2022-11-24T04:59:15.194Z,97965.56
2022-11-24T05:00:17.454Z,97957.47
2022-11-24T05:01:19.256Z,97960.72
2022-11-24T05:02:21.169Z,97964.19
2022-11-24T05:03:22.933Z,97961.56
2022-11-24T05:04:24.791Z,97962.13
2022-11-24T05:05:26.545Z,97958.69
2022-11-24T05:06:28.323Z,97961.94
2022-11-24T05:07:30.140Z,97966.97
2022-11-24T05:08:32.159Z,97961.13
2022-11-24T05:09:58.131Z,97965.53
2022-11-24T05:10:55.583Z,97960.88
2022-11-24T05:11:57.295Z,97957.06
2022-11-24T05:12:59.770Z,97963.72
2022-11-24T05:14:02.052Z,97967.53
2022-11-24T05:15:05.595Z,97968.97
2022-11-24T05:16:07.605Z,97958.91
2022-11-24T05:17:09.286Z,97966.16
2022-11-24T05:18:13.775Z,97965.72
2022-11-24T05:19:15.759Z,97970.56
2022-11-24T05:20:18.378Z,97970.38
2022-11-24T05:21:20.018Z,97971.78
2022-11-24T05:22:21.665Z,97971.16
2022-11-24T05:23:23.356Z,97972.75
2022-11-24T05:24:24.990Z,97982.25
2022-11-24T05:25:26.673Z,97990.31
2022-11-24T05:26:28.425Z,97972.19
2022-11-24T05:27:30.144Z,97981.44
2022-11-24T05:28:32.091Z,97984.47
2022-11-24T05:29:33.758Z,97985.06
2022-11-24T05:30:38.247Z,97986.72
2022-11-24T05:31:39.928Z,97990.97
2022-11-24T05:32:41.729Z,97983.91
2022-11-24T05:33:43.453Z,97988.53
2022-11-24T05:34:45.155Z,97993.19
2022-11-24T05:35:48.305Z,97988.34
2022-11-24T05:36:52.993Z,97992.59
2022-11-24T05:37:54.722Z,97990.38
2022-11-24T05:38:56.412Z,97992.81
2022-11-24T05:39:58.071Z,97997.84
2022-11-24T05:41:04.795Z,98000.09
2022-11-24T05:42:26.701Z,97998.06
2022-11-24T05:43:28.597Z,97990.63
2022-11-24T05:44:30.237Z,97996.06
2022-11-24T05:45:31.875Z,98003.31
2022-11-24T05:46:33.703Z,97997.69
2022-11-24T05:47:36.146Z,98004.13
2022-11-24T05:48:37.840Z,98002.91
2022-11-24T05:49:39.691Z,98007.56
2022-11-24T05:50:41.747Z,97993.06
2022-11-24T05:51:43.412Z,98002.13
2022-11-24T05:52:45.330Z,98009.00
2022-11-24T05:53:46.955Z,98002.13
2022-11-24T05:54:48.978Z,98007.19
2022-11-24T05:55:50.623Z,98000.13
2022-11-24T05:56:52.262Z,98015.44
2022-11-24T05:58:07.851Z,98010.00
2022-11-24T05:59:10.123Z,98003.34
2022-11-24T06:00:13.134Z,98007.41
2022-11-24T06:01:14.805Z,98005.75
2022-11-24T06:02:16.617Z,98006.38
2022-11-24T06:03:18.324Z,98004.38
2022-11-24T06:04:20.029Z,98020.50
2022-11-24T06:05:21.926Z,98016.25
2022-11-24T06:06:23.575Z,98008.81
2022-11-24T06:07:25.329Z,98011.00
2022-11-24T06:08:31.083Z,98009.63
2022-11-24T06:09:35.491Z,98015.06
2022-11-24T06:10:37.197Z,98017.88
2022-11-24T06:11:38.911Z,98024.53
2022-11-24T06:12:40.553Z,98017.66
2022-11-24T06:13:42.314Z,98022.69
2022-11-24T06:14:44.319Z,98026.94
2022-11-24T06:15:46.565Z,98023.31
2022-11-24T06:16:48.254Z,98018.03
2022-11-24T06:17:54.943Z,98016.19
2022-11-24T06:18:56.707Z,98016.16
2022-11-24T06:19:58.392Z,98014.56
2022-11-24T06:21:10.819Z,98014.16
2022-11-24T06:22:12.769Z,98007.28
2022-11-24T06:23:14.416Z,98010.06
2022-11-24T06:24:16.080Z,98016.13
2022-11-24T06:25:18.147Z,98024.63
2022-11-24T06:26:19.942Z,98021.78
2022-11-24T06:27:21.631Z,98033.25
2022-11-24T06:28:23.327Z,98033.88
2022-11-24T06:29:25.055Z,98042.75
2022-11-24T06:30:26.723Z,98034.88
2022-11-24T06:31:28.464Z,98032.44
2022-11-24T06:32:30.164Z,98035.88
2022-11-24T06:33:36.573Z,98025.00
2022-11-24T06:34:38.212Z,98029.44
2022-11-24T06:35:39.906Z,98032.66
2022-11-24T06:36:41.757Z,98031.34
2022-11-24T06:37:43.433Z,98031.34
2022-11-24T06:38:45.207Z,98035.53
2022-11-24T06:39:46.953Z,98028.00
2022-11-24T06:40:48.607Z,98022.53
2022-11-24T06:41:50.823Z,98022.31
2022-11-24T06:42:52.781Z,98024.84
2022-11-24T06:43:54.474Z,98025.59
2022-11-24T06:44:56.122Z,98022.06
2022-11-24T06:45:58.324Z,98025.56
2022-11-24T06:47:00.153Z,98020.81
2022-11-24T06:48:01.829Z,98036.53
2022-11-24T06:49:03.600Z,98039.34
2022-11-24T06:50:05.801Z,98035.63
2022-11-24T06:51:10.848Z,98041.06
2022-11-24T06:52:12.494Z,98043.41
2022-11-24T06:53:14.163Z,98048.22
2022-11-24T06:54:18.007Z,98044.13
2022-11-24T06:55:19.649Z,98050.31
2022-11-24T06:56:21.714Z,98054.44
2022-11-24T06:57:23.387Z,98048.28
2022-11-24T06:58:25.019Z,98052.06
2022-11-24T06:59:27.824Z,98044.56
2022-11-24T07:00:32.179Z,98046.75
2022-11-24T07:01:33.913Z,98044.19
2022-11-24T07:02:35.693Z,98053.56
2022-11-24T07:03:37.381Z,98042.34
2022-11-24T07:04:39.058Z,98046.78
2022-11-24T07:05:40.746Z,98051.91
2022-11-24T07:06:43.106Z,98048.44
2022-11-24T07:07:44.810Z,98046.56
2022-11-24T07:08:47.218Z,98054.19
2022-11-24T07:09:48.910Z,98053.25
2022-11-24T07:10:50.847Z,98053.06
2022-11-24T07:11:55.324Z,98052.59
2022-11-24T07:12:56.952Z,98059.00
2022-11-24T07:14:00.234Z,98060.03
2022-11-24T07:15:02.136Z,98060.78
2022-11-24T07:16:18.899Z,98060.69
2022-11-24T07:17:20.619Z,98063.31
2022-11-24T07:18:22.602Z,98050.97
2022-11-24T07:19:25.210Z,98057.81
2022-11-24T07:20:27.088Z,98062.19
2022-11-24T07:21:30.658Z,98054.28
2022-11-24T07:22:32.564Z,98047.16
2022-11-24T07:23:34.239Z,98061.34
2022-11-24T07:24:36.252Z,98062.59
2022-11-24T07:25:38.113Z,98067.63
2022-11-24T07:26:40.351Z,98058.34
2022-11-24T07:27:42.045Z,98067.69
2022-11-24T07:28:43.737Z,98065.63
2022-11-24T07:29:45.371Z,98063.22
2022-11-24T07:30:47.014Z,98057.75
2022-11-24T07:31:48.740Z,98064.47
2022-11-24T07:32:50.481Z,98065.94
2022-11-24T07:33:54.137Z,98065.88
2022-11-24T07:34:55.785Z,98066.69
2022-11-24T07:35:59.972Z,98069.75
2022-11-24T07:37:01.635Z,98059.28
2022-11-24T07:38:03.374Z,98074.53
2022-11-24T07:39:07.052Z,98067.84
2022-11-24T07:40:09.493Z,98059.88
2022-11-24T07:41:13.105Z,98060.53
2022-11-24T07:42:14.800Z,98070.16
2022-11-24T07:43:20.129Z,98060.44
2022-11-24T07:44:22.136Z,98057.03
2022-11-24T07:45:23.779Z,98062.34
2022-11-24T07:46:25.575Z,98059.38
2022-11-24T07:47:27.416Z,98064.34
2022-11-24T07:48:29.169Z,98062.88
2022-11-24T07:49:30.786Z,98062.94
2022-11-24T07:50:32.556Z,98063.63
2022-11-24T07:51:34.201Z,98069.81
2022-11-24T07:52:37.011Z,98065.22
2022-11-24T07:53:39.844Z,98060.19
2022-11-24T07:54:41.494Z,98064.50
2022-11-24T07:55:43.860Z,98060.34
2022-11-24T07:56:48.645Z,98056.53
2022-11-24T07:57:50.322Z,98053.50
2022-11-24T07:58:53.139Z,98051.94
2022-11-24T07:59:56.305Z,98065.56
2022-11-24T08:00:58.268Z,98053.19
2022-11-24T08:01:59.951Z,98050.75
2022-11-24T08:03:01.803Z,98055.69
2022-11-24T08:04:03.598Z,98049.28
2022-11-24T08:05:06.178Z,98041.19
2022-11-24T08:06:24.029Z,98052.69
2022-11-24T08:07:26.153Z,98048.63
2022-11-24T08:08:27.897Z,98048.94
2022-11-24T08:09:29.536Z,98050.78
2022-11-24T08:10:31.248Z,98042.66
2022-11-24T08:11:33.216Z,98038.94
2022-11-24T08:12:34.951Z,98053.00
2022-11-24T08:13:37.310Z,98045.91
2022-11-24T08:14:38.992Z,98049.16
2022-11-24T08:15:40.641Z,98050.06
2022-11-24T08:16:42.407Z,98048.94
2022-11-24T08:17:44.175Z,98051.69
2022-11-24T08:18:51.399Z,98048.66
2022-11-24T08:19:53.072Z,98051.22
2022-11-24T08:20:58.274Z,98057.03
2022-11-24T08:21:59.940Z,98047.69
2022-11-24T08:23:01.635Z,98056.41
2022-11-24T08:24:03.636Z,98060.81
2022-11-24T08:25:05.701Z,98056.88
2022-11-24T08:26:10.818Z,98052.03
2022-11-24T08:27:14.151Z,98053.06
2022-11-24T08:28:15.840Z,98051.50
2022-11-24T08:29:17.605Z,98054.88
2022-11-24T08:30:20.152Z,98057.56
2022-11-24T08:31:22.032Z,98054.09
2022-11-24T08:32:23.853Z,98052.50
2022-11-24T08:33:25.566Z,98058.38
2022-11-24T08:34:27.392Z,98049.91
2022-11-24T08:35:29.195Z,98059.19
2022-11-24T08:36:31.059Z,98059.41
2022-11-24T08:37:32.825Z,98053.34
2022-11-24T08:38:35.121Z,98062.84
2022-11-24T08:39:36.854Z,98056.50
2022-11-24T08:40:38.511Z,98057.63
2022-11-24T08:41:40.274Z,98047.84
2022-11-24T08:42:41.937Z,98060.34
2022-11-24T08:43:43.893Z,98052.06
2022-11-24T08:44:45.563Z,98059.09
2022-11-24T08:45:47.249Z,98061.38
2022-11-24T08:46:50.021Z,98064.44
2022-11-24T08:47:54.171Z,98057.78
2022-11-24T08:48:56.064Z,98062.41
2022-11-24T08:49:57.742Z,98055.19
2022-11-24T08:51:00.496Z,98059.44
2022-11-24T08:52:02.168Z,98054.41
2022-11-24T08:53:03.843Z,98051.63
2022-11-24T08:54:05.551Z,98054.47
2022-11-24T08:55:07.476Z,98053.84
2022-11-24T08:56:10.909Z,98052.06
2022-11-24T08:57:18.729Z,98048.56
2022-11-24T08:58:23.333Z,98051.22
2022-11-24T08:59:25.106Z,98051.72
2022-11-24T09:00:26.813Z,98044.28
2022-11-24T09:01:29.416Z,98044.06
2022-11-24T09:02:31.173Z,98048.13
2022-11-24T09:03:32.893Z,98051.84
2022-11-24T09:04:34.870Z,98048.53
2022-11-24T09:05:51.886Z,98045.81
2022-11-24T09:06:54.358Z,98039.63
2022-11-24T09:07:56.184Z,98047.22
2022-11-24T09:08:59.934Z,98043.69
2022-11-24T09:10:01.997Z,98048.06
2022-11-24T09:11:09.288Z,98044.44
2022-11-24T09:12:14.390Z,98043.84
2022-11-24T09:13:16.408Z,98046.16
2022-11-24T09:14:18.063Z,98042.88
2022-11-24T09:15:20.458Z,98042.59
2022-11-24T09:16:26.114Z,98041.47
2022-11-24T09:17:28.170Z,98047.16
2022-11-24T09:18:30.572Z,98045.59
2022-11-24T09:19:32.553Z,98037.44
2022-11-24T09:20:34.532Z,98040.97
2022-11-24T09:21:39.444Z,98043.59
2022-11-24T09:22:41.852Z,98038.25
2022-11-24T09:23:44.546Z,98034.47
2022-11-24T09:24:46.212Z,98039.72
2022-11-24T09:25:47.896Z,98033.78
2022-11-24T09:26:49.573Z,98032.69
2022-11-24T09:27:51.812Z,98041.00
2022-11-24T09:28:55.594Z,98039.56
2022-11-24T09:30:35.692Z,98035.13
2022-11-24T09:31:39.347Z,98029.78
2022-11-24T09:32:41.066Z,98028.78
2022-11-24T09:33:43.313Z,98039.50
2022-11-24T09:34:44.985Z,98032.09
2022-11-24T09:35:50.154Z,98028.69
2022-11-24T09:36:51.815Z,98026.59
2022-11-24T09:37:53.445Z,98034.50
2022-11-24T09:38:55.577Z,98033.38
2022-11-24T09:39:57.301Z,98024.44
2022-11-24T09:41:17.461Z,98020.97
2022-11-24T09:42:37.162Z,98019.94
2022-11-24T09:43:46.456Z,98022.56
2022-11-24T09:45:15.505Z,98020.03
2022-11-24T09:46:19.992Z,98026.41
2022-11-24T09:47:43.013Z,98022.09
2022-11-24T09:48:49.470Z,98025.03
2022-11-24T09:50:03.071Z,98017.94
2022-11-24T09:51:05.993Z,98020.25
2022-11-24T09:52:16.783Z,98016.00
2022-11-24T09:53:44.780Z,98016.97
2022-11-24T09:54:58.444Z,98018.22
2022-11-24T09:56:06.325Z,98012.34
2022-11-24T09:57:44.203Z,98007.38
2022-11-24T09:59:45.626Z,98007.00
2022-11-24T10:00:55.835Z,98008.25
2022-11-24T10:02:01.390Z,98007.72
2022-11-24T10:03:03.888Z,98013.34
2022-11-24T10:04:19.214Z,98005.34
2022-11-24T10:05:23.718Z,98010.38
2022-11-24T10:06:38.898Z,98002.66
2022-11-24T10:07:59.399Z,98000.59
2022-11-24T10:09:20.314Z,98001.25
2022-11-24T10:10:29.928Z,98005.09
2022-11-24T10:11:46.029Z,98007.28
2022-11-24T10:12:47.940Z,98010.53
2022-11-24T10:14:01.733Z,98005.22
2022-11-24T10:15:19.249Z,98006.28
2022-11-24T10:16:23.763Z,98001.78
2022-11-24T10:17:37.774Z,98000.44
2022-11-24T10:18:39.442Z,98002.47
2022-11-24T10:19:46.772Z,97997.28
2022-11-24T10:20:48.361Z,98003.19
2022-11-24T10:22:12.920Z,97996.38
2022-11-24T10:23:40.986Z,98000.19
2022-11-24T10:24:54.686Z,97999.25
2022-11-24T10:26:00.897Z,98005.72
2022-11-24T10:27:20.074Z,97998.63
2022-11-24T10:28:21.735Z,98006.81
2022-11-24T10:29:26.118Z,98002.97
2022-11-24T10:30:28.361Z,97996.16
2022-11-24T10:31:36.772Z,97999.22
2022-11-24T10:32:45.151Z,97999.56
2022-11-24T10:33:47.906Z,98006.56
2022-11-24T10:34:50.718Z,97997.06
2022-11-24T10:36:09.660Z,97990.66
2022-11-24T10:37:11.267Z,97999.00
2022-11-24T10:38:21.988Z,97996.47
2022-11-24T10:39:32.802Z,98004.16
2022-11-24T10:40:59.143Z,97994.75
2022-11-24T10:42:03.296Z,98004.50
2022-11-24T10:43:10.415Z,97999.81
2022-11-24T10:44:15.721Z,97999.00
2022-11-24T10:45:22.661Z,98004.56
2022-11-24T10:46:27.289Z,97991.97
2022-11-24T10:47:30.476Z,97997.69
2022-11-24T10:48:41.233Z,97995.28
2022-11-24T10:49:58.233Z,98001.69
2022-11-24T10:51:38.823Z,97991.53
2022-11-24T10:52:44.594Z,97995.47
2022-11-24T10:53:48.337Z,97999.06
2022-11-24T10:54:59.328Z,97994.78
2022-11-24T10:56:03.876Z,98003.22
2022-11-24T10:57:05.565Z,97996.91
2022-11-24T10:58:16.345Z,97995.69
2022-11-24T10:59:38.398Z,97994.94
2022-11-24T11:00:40.385Z,97997.22
2022-11-24T11:01:42.376Z,97998.16
2022-11-24T11:02:45.209Z,97988.78
2022-11-24T11:03:59.327Z,97993.53
2022-11-24T11:05:32.729Z,98000.25
2022-11-24T11:06:36.396Z,98002.03
2022-11-24T11:07:38.135Z,97996.31
2022-11-24T11:08:40.433Z,97992.72
2022-11-24T11:09:42.109Z,97994.13
2022-11-24T11:10:44.940Z,98001.16
2022-11-24T11:11:48.899Z,97998.72
2022-11-24T11:12:50.750Z,97997.22
2022-11-24T11:14:02.978Z,97998.03
2022-11-24T11:15:23.161Z,97990.38
2022-11-24T11:16:32.578Z,98000.69
2022-11-24T11:17:37.213Z,97992.22
2022-11-24T11:18:38.924Z,98005.88
2022-11-24T11:19:49.568Z,97994.38
2022-11-24T11:20:58.157Z,98000.25
2022-11-24T11:22:24.663Z,97997.56
2022-11-24T11:23:35.915Z,98006.09
2022-11-24T11:24:43.538Z,97991.88
2022-11-24T11:25:45.192Z,97994.28
2022-11-24T11:26:46.897Z,97992.03
2022-11-24T11:27:49.256Z,97994.03
2022-11-24T11:31:15.279Z,97995.94
2022-11-24T11:34:56.319Z,97993.75
2022-11-24T11:36:01.107Z,97998.72
2022-11-24T11:37:04.514Z,97996.16
2022-11-24T11:38:07.025Z,97994.56
2022-11-24T11:39:35.839Z,97987.91
2022-11-24T11:40:37.568Z,97991.22
2022-11-24T11:41:46.324Z,97996.38
2022-11-24T11:43:08.069Z,97992.16
2022-11-24T11:44:34.245Z,97992.75
2022-11-24T11:45:38.118Z,97995.13
2022-11-24T11:46:39.927Z,97990.84
2022-11-24T11:47:44.191Z,97999.13
2022-11-24T11:48:47.542Z,97991.72
2022-11-24T11:49:49.881Z,97988.06
2022-11-24T11:52:37.772Z,98002.56
2022-11-24T11:53:53.280Z,97997.81
2022-11-24T11:55:27.072Z,97999.97
2022-11-24T11:56:31.140Z,98003.75
2022-11-24T11:57:35.713Z,98002.44
2022-11-24T11:58:56.032Z,98008.06
2022-11-24T12:00:15.687Z,98000.31
2022-11-24T12:01:26.732Z,98000.63
2022-11-24T12:02:55.451Z,98003.31
2022-11-24T12:04:15.747Z,98011.28
2022-11-24T12:05:17.374Z,98013.44
2022-11-24T12:06:56.248Z,98015.53
2022-11-24T12:08:20.698Z,98012.59
2022-11-24T12:09:51.114Z,98012.88
2022-11-24T12:10:58.568Z,98013.91
2022-11-24T12:12:03.165Z,98015.78
2022-11-24T12:13:10.971Z,98024.84
2022-11-24T12:14:24.629Z,98026.69
2022-11-24T12:15:41.576Z,98021.34
2022-11-24T12:17:13.599Z,98020.28
2022-11-24T12:18:57.444Z,98026.41
2022-11-24T12:20:33.329Z,98019.25
2022-11-24T12:22:06.267Z,98028.28
2022-11-24T12:23:14.085Z,98034.66
2022-11-24T12:24:15.720Z,98029.34
2022-11-24T12:25:17.343Z,98030.41
2022-11-24T12:26:31.089Z,98037.03
2022-11-24T12:27:50.209Z,98033.03
2022-11-24T12:28:51.848Z,98035.69
2022-11-24T12:30:10.327Z,98046.06
2022-11-24T12:31:36.423Z,98041.53
2022-11-24T12:33:33.017Z,98042.06
2022-11-24T12:34:59.814Z,98046.25
2022-11-24T12:36:16.163Z,98045.19
2022-11-24T12:37:32.906Z,98048.91
2022-11-24T12:38:37.324Z,98054.47
2022-11-24T12:40:03.849Z,98044.84
2022-11-24T12:41:43.280Z,98050.94
2022-11-24T12:43:18.557Z,98050.41
2022-11-24T12:44:45.002Z,98057.78
2022-11-24T12:46:04.799Z,98051.91
2022-11-24T12:47:19.663Z,98047.06
2022-11-24T12:48:21.367Z,98049.13
2022-11-24T12:49:23.026Z,98046.44
2022-11-24T12:50:28.776Z,98048.56
2022-11-24T12:51:40.205Z,98041.88
2022-11-24T12:52:48.438Z,98051.16
2022-11-24T12:53:53.027Z,98050.34
2022-11-24T12:54:55.657Z,98055.34
2022-11-24T12:56:11.042Z,98061.13